Time,TemperatureF,DewpointF,PressureIn,WindDirection,WindDirectionDegrees,WindSpeedMPH,WindSpeedGustMPH,Humidity,HourlyPrecipIn,Conditions,Clouds,dailyrainin,SoftwareType,DateUTC
2013-03-06 00:04:00,49.6,47.7,29.75,West,270,0.0,-999.0,93,0.19,,,3.45,,2013-03-06 08:04:00,
2013-03-06 00:09:00,49.5,47.7,29.75,West,270,0.0,-999.0,93,0.20,,,3.46,,2013-03-06 08:09:00,
2013-03-06 00:14:00,49.6,47.6,29.74,West,270,0.0,-999.0,92,0.20,,,3.46,,2013-03-06 08:14:00,
2013-03-06 00:19:00,49.6,47.9,29.74,West,270,0.0,-999.0,93,0.20,,,3.46,,2013-03-06 08:19:00,
2013-03-06 00:24:00,49.6,47.5,29.74,West,270,0.0,-999.0,92,0.20,,,3.46,,2013-03-06 08:24:00,
2013-03-06 00:29:00,49.8,47.4,29.74,West,270,0.0,-999.0,91,0.20,,,3.46,,2013-03-06 08:29:00,
2013-03-06 00:34:00,49.8,47.4,29.76,West,270,0.0,-999.0,91,0.20,,,3.46,,2013-03-06 08:34:00,
2013-03-06 00:39:00,50.2,47.3,29.75,West,270,0.0,-999.0,89,0.20,,,3.46,,2013-03-06 08:39:00,
2013-03-06 00:44:00,49.1,48.1,29.75,West,270,0.0,-999.0,96,0.21,,,3.48,,2013-03-06 08:44:00,
2013-03-06 00:49:00,49.1,48.4,29.76,West,270,0.0,-999.0,97,0.22,,,3.49,,2013-03-06 08:49:00,
2013-03-06 00:55:00,48.7,48.3,29.76,West,270,0.0,-999.0,98,0.23,,,3.50,,2013-03-06 08:55:00,
2013-03-06 01:00:00,48.7,48.5,29.75,West,270,0.0,-999.0,99,0.24,,,3.51,,2013-03-06 09:00:00,
2013-03-06 01:05:00,48.7,48.5,29.76,West,270,0.0,-999.0,99,0.28,,,3.54,,2013-03-06 09:05:00,
2013-03-06 01:10:00,48.7,48.7,29.76,West,270,0.0,-999.0,99,0.35,,,3.62,,2013-03-06 09:10:00,
2013-03-06 01:15:00,49.1,49.0,29.76,West,270,0.0,-999.0,99,0.35,,,3.62,,2013-03-06 09:15:00,
2013-03-06 01:20:00,49.6,49.6,29.75,West,270,0.0,-999.0,99,0.35,,,3.62,,2013-03-06 09:20:00,
2013-03-06 01:25:00,50.0,49.9,29.75,West,270,0.0,-999.0,99,0.35,,,3.62,,2013-03-06 09:25:00,
2013-03-06 01:30:00,50.2,49.7,29.76,West,270,0.0,-999.0,98,0.35,,,3.62,,2013-03-06 09:30:00,
2013-03-06 01:35:00,50.2,49.7,29.75,West,270,0.0,-999.0,98,0.35,,,3.62,,2013-03-06 09:35:00,
2013-03-06 01:40:00,50.4,49.9,29.76,West,270,0.0,-999.0,98,0.35,,,3.62,,2013-03-06 09:40:00,
2013-03-06 01:45:00,50.7,50.5,29.76,West,270,0.0,-999.0,99,0.35,,,3.62,,2013-03-06 09:45:00,
2013-03-06 01:51:00,50.9,50.5,29.76,West,270,0.0,-999.0,98,0.35,,,3.62,,2013-03-06 09:51:00,
2013-03-06 01:56:00,51.1,50.4,29.77,West,270,0.0,-999.0,97,0.37,,,3.64,,2013-03-06 09:56:00,
2013-03-06 02:01:00,50.5,49.6,29.76,West,270,0.0,-999.0,96,0.38,,,3.65,,2013-03-06 10:01:00,
2013-03-06 02:06:00,50.5,49.0,29.76,West,270,0.0,-999.0,94,0.38,,,3.65,,2013-03-06 10:06:00,
2013-03-06 02:11:00,51.1,49.6,29.77,West,270,0.0,-999.0,94,0.38,,,3.65,,2013-03-06 10:11:00,
2013-03-06 02:16:00,50.7,48.9,29.76,West,270,0.0,-999.0,93,0.38,,,3.65,,2013-03-06 10:16:00,
2013-03-06 02:21:00,51.4,49.1,29.77,West,270,0.0,-999.0,91,0.38,,,3.65,,2013-03-06 10:21:00,
2013-03-06 02:26:00,51.6,49.4,29.77,West,270,0.0,-999.0,92,0.38,,,3.65,,2013-03-06 10:26:00,
2013-03-06 02:31:00,50.9,49.4,29.77,West,270,0.0,-999.0,94,0.38,,,3.65,,2013-03-06 10:31:00,
2013-03-06 02:36:00,51.4,50.0,29.77,West,270,0.0,-999.0,94,0.38,,,3.65,,2013-03-06 10:36:00,
2013-03-06 02:41:00,51.3,50.0,29.77,West,270,0.0,-999.0,95,0.38,,,3.65,,2013-03-06 10:41:00,
2013-03-06 02:46:00,51.3,49.4,29.77,West,270,0.0,-999.0,93,0.38,,,3.65,,2013-03-06 10:46:00,
2013-03-06 02:51:00,51.1,48.9,29.77,West,270,0.0,-999.0,92,0.38,,,3.65,,2013-03-06 10:51:00,
2013-03-06 02:56:00,50.9,48.0,29.77,West,270,0.0,-999.0,90,0.38,,,3.65,,2013-03-06 10:56:00,
2013-03-06 03:02:00,51.6,48.5,29.77,West,270,0.0,-999.0,89,0.38,,,3.65,,2013-03-06 11:02:00,
2013-03-06 03:07:00,51.1,47.7,29.76,West,270,0.0,-999.0,88,0.38,,,3.65,,2013-03-06 11:07:00,
2013-03-06 03:12:00,51.8,48.7,29.77,West,270,0.0,-999.0,89,0.38,,,3.65,,2013-03-06 11:12:00,
2013-03-06 03:17:00,52.2,49.0,29.77,West,270,0.0,-999.0,88,0.38,,,3.65,,2013-03-06 11:17:00,
2013-03-06 03:22:00,52.3,48.2,29.78,West,270,0.0,-999.0,86,0.38,,,3.65,,2013-03-06 11:22:00,
2013-03-06 03:27:00,53.4,49.0,29.77,West,270,0.0,-999.0,85,0.38,,,3.65,,2013-03-06 11:27:00,
2013-03-06 03:32:00,53.4,48.8,29.78,West,270,0.0,-999.0,84,0.38,,,3.65,,2013-03-06 11:32:00,
2013-03-06 03:37:00,54.1,48.4,29.78,West,270,0.0,-999.0,81,0.38,,,3.65,,2013-03-06 11:37:00,
2013-03-06 03:42:00,54.7,48.9,29.78,West,270,0.0,-999.0,81,0.38,,,3.65,,2013-03-06 11:42:00,
2013-03-06 03:47:00,54.5,49.2,29.78,West,270,0.0,-999.0,82,0.38,,,3.65,,2013-03-06 11:47:00,
2013-03-06 03:52:00,54.0,48.9,29.78,West,270,0.0,-999.0,83,0.38,,,3.65,,2013-03-06 11:52:00,
2013-03-06 03:57:00,54.3,49.3,29.79,West,270,0.0,-999.0,83,0.38,,,3.65,,2013-03-06 11:57:00,
2013-03-06 04:02:00,54.9,49.3,29.79,West,270,0.0,-999.0,81,0.38,,,3.65,,2013-03-06 12:02:00,
2013-03-06 04:08:00,55.2,48.6,29.80,West,270,0.0,-999.0,78,0.38,,,3.65,,2013-03-06 12:08:00,
2013-03-06 04:13:00,55.4,48.1,29.80,West,270,0.0,-999.0,76,0.38,,,3.65,,2013-03-06 12:13:00,
2013-03-06 04:18:00,55.2,48.0,29.80,West,270,0.0,-999.0,76,0.38,,,3.65,,2013-03-06 12:18:00,
2013-03-06 04:23:00,54.7,48.0,29.80,West,270,0.0,-999.0,78,0.38,,,3.65,,2013-03-06 12:23:00,
2013-03-06 04:28:00,55.0,48.2,29.81,West,270,0.0,-999.0,77,0.38,,,3.65,,2013-03-06 12:28:00,
2013-03-06 04:33:00,55.0,48.0,29.81,West,270,0.0,-999.0,77,0.38,,,3.65,,2013-03-06 12:33:00,
2013-03-06 04:38:00,55.2,47.8,29.82,West,270,0.0,-999.0,76,0.38,,,3.65,,2013-03-06 12:38:00,
2013-03-06 04:43:00,55.0,47.7,29.81,West,270,0.0,-999.0,76,0.38,,,3.65,,2013-03-06 12:43:00,
2013-03-06 04:48:00,55.0,47.7,29.81,West,270,0.0,-999.0,76,0.38,,,3.65,,2013-03-06 12:48:00,
2013-03-06 04:53:00,54.9,47.2,29.82,West,270,0.0,-999.0,75,0.38,,,3.65,,2013-03-06 12:53:00,
2013-03-06 04:58:00,54.5,47.0,29.82,West,270,0.0,-999.0,75,0.38,,,3.65,,2013-03-06 12:58:00,
2013-03-06 05:03:00,54.7,46.9,29.82,West,270,0.0,-999.0,75,0.38,,,3.65,,2013-03-06 13:03:00,
2013-03-06 05:08:00,55.0,47.2,29.82,West,270,0.0,-999.0,74,0.38,,,3.65,,2013-03-06 13:08:00,
2013-03-06 05:14:00,54.5,46.6,29.82,West,270,0.0,-999.0,74,0.38,,,3.65,,2013-03-06 13:14:00,
2013-03-06 05:19:00,54.5,47.0,29.82,West,270,0.0,-999.0,75,0.38,,,3.65,,2013-03-06 13:19:00,
2013-03-06 05:24:00,54.5,46.5,29.82,West,270,0.0,-999.0,74,0.38,,,3.65,,2013-03-06 13:24:00,
2013-03-06 05:29:00,54.5,46.2,29.82,West,270,0.0,-999.0,73,0.38,,,3.65,,2013-03-06 13:29:00,
2013-03-06 05:34:00,54.5,46.4,29.82,West,270,0.0,-999.0,74,0.38,,,3.65,,2013-03-06 13:34:00,
2013-03-06 05:39:00,54.1,46.0,29.83,West,270,0.0,-999.0,74,0.40,,,3.66,,2013-03-06 13:39:00,
2013-03-06 05:44:00,54.1,46.2,29.83,West,270,0.0,-999.0,74,0.40,,,3.66,,2013-03-06 13:44:00,
2013-03-06 05:49:00,54.5,46.4,29.82,West,270,0.0,-999.0,74,0.41,,,3.67,,2013-03-06 13:49:00,
2013-03-06 05:54:00,53.8,45.6,29.82,West,270,0.0,-999.0,73,0.41,,,3.67,,2013-03-06 13:54:00,
2013-03-06 05:59:00,54.0,46.3,29.83,West,270,0.0,-999.0,75,0.41,,,3.67,,2013-03-06 13:59:00,
2013-03-06 06:04:00,54.1,46.5,29.83,West,270,0.0,-999.0,75,0.42,,,3.68,,2013-03-06 14:04:00,
2013-03-06 06:09:00,54.1,46.5,29.83,West,270,0.0,-999.0,75,0.42,,,3.68,,2013-03-06 14:09:00,
2013-03-06 06:15:00,54.0,46.2,29.84,West,270,0.0,-999.0,74,0.42,,,3.68,,2013-03-06 14:15:00,
2013-03-06 06:20:00,54.0,45.9,29.84,West,270,0.0,-999.0,74,0.42,,,3.68,,2013-03-06 14:20:00,
2013-03-06 06:25:00,54.0,45.6,29.84,West,270,0.0,-999.0,73,0.42,,,3.68,,2013-03-06 14:25:00,
2013-03-06 06:30:00,54.5,46.5,29.84,West,270,0.0,-999.0,74,0.42,,,3.68,,2013-03-06 14:30:00,
2013-03-06 06:35:00,54.1,46.3,29.85,West,270,0.0,-999.0,74,0.42,,,3.68,,2013-03-06 14:35:00,
2013-03-06 06:40:00,54.1,46.3,29.85,West,270,0.0,-999.0,74,0.42,,,3.68,,2013-03-06 14:40:00,
2013-03-06 06:45:00,54.0,45.8,29.85,West,270,0.0,-999.0,74,0.42,,,3.68,,2013-03-06 14:45:00,
2013-03-06 06:50:00,54.0,46.2,29.85,West,270,0.0,-999.0,75,0.42,,,3.68,,2013-03-06 14:50:00,
2013-03-06 06:55:00,54.1,46.5,29.86,West,270,0.0,-999.0,75,0.42,,,3.68,,2013-03-06 14:55:00,
2013-03-06 07:00:00,54.0,46.7,29.86,West,270,0.0,-999.0,76,0.42,,,3.68,,2013-03-06 15:00:00,
2013-03-06 07:05:00,54.3,46.9,29.87,West,270,0.0,-999.0,76,0.42,,,3.68,,2013-03-06 15:05:00,
2013-03-06 07:10:00,54.0,46.3,29.87,West,270,0.0,-999.0,75,0.42,,,3.68,,2013-03-06 15:10:00,
2013-03-06 07:15:00,54.3,47.0,29.87,West,270,0.0,-999.0,76,0.42,,,3.68,,2013-03-06 15:15:00,
2013-03-06 07:21:00,54.0,46.6,29.87,West,270,0.0,-999.0,76,0.42,,,3.68,,2013-03-06 15:21:00,
2013-03-06 07:26:00,54.5,47.2,29.87,West,270,0.0,-999.0,76,0.42,,,3.68,,2013-03-06 15:26:00,
2013-03-06 07:31:00,54.5,47.2,29.88,West,270,0.0,-999.0,76,0.42,,,3.68,,2013-03-06 15:31:00,
2013-03-06 07:36:00,55.0,46.8,29.88,West,270,0.0,-999.0,73,0.42,,,3.68,,2013-03-06 15:36:00,
2013-03-06 07:41:00,54.5,45.9,29.88,West,270,0.0,-999.0,72,0.42,,,3.68,,2013-03-06 15:41:00,
2013-03-06 07:46:00,54.7,46.3,29.88,West,270,0.0,-999.0,73,0.42,,,3.68,,2013-03-06 15:46:00,
2013-03-06 07:51:00,55.0,46.1,29.88,West,270,0.0,-999.0,71,0.42,,,3.68,,2013-03-06 15:51:00,
2013-03-06 07:56:00,55.0,46.6,29.89,West,270,0.0,-999.0,73,0.42,,,3.68,,2013-03-06 15:56:00,
2013-03-06 08:01:00,55.4,46.1,29.89,West,270,0.0,-999.0,71,0.42,,,3.68,,2013-03-06 16:01:00,
2013-03-06 08:06:00,54.9,45.2,29.90,West,270,0.0,-999.0,69,0.42,,,3.68,,2013-03-06 16:06:00,
2013-03-06 08:11:00,55.2,45.9,29.90,West,270,0.0,-999.0,70,0.42,,,3.68,,2013-03-06 16:11:00,
2013-03-06 08:16:00,54.3,46.1,29.91,West,270,0.0,-999.0,73,0.42,,,3.68,,2013-03-06 16:16:00,
2013-03-06 08:21:00,54.3,46.1,29.91,West,270,0.0,-999.0,73,0.42,,,3.68,,2013-03-06 16:21:00,
2013-03-06 08:27:00,54.7,45.6,29.91,West,270,0.0,-999.0,71,0.42,,,3.68,,2013-03-06 16:27:00,
2013-03-06 08:32:00,53.2,46.1,29.91,West,270,0.0,-999.0,76,0.42,,,3.68,,2013-03-06 16:32:00,
2013-03-06 08:37:00,53.2,45.8,29.91,West,270,0.0,-999.0,75,0.42,,,3.68,,2013-03-06 16:37:00,
2013-03-06 08:42:00,52.9,45.3,29.91,West,270,0.0,-999.0,75,0.42,,,3.68,,2013-03-06 16:42:00,
2013-03-06 08:47:00,55.0,46.7,29.92,West,270,0.0,-999.0,73,0.43,,,3.70,,2013-03-06 16:47:00,
2013-03-06 08:52:00,56.3,47.1,29.92,West,270,0.0,-999.0,71,0.44,,,3.71,,2013-03-06 16:52:00,
2013-03-06 08:57:00,54.3,45.2,29.93,West,270,0.0,-999.0,71,0.44,,,3.71,,2013-03-06 16:57:00,
2013-03-06 09:02:00,54.3,45.5,29.93,West,270,0.0,-999.0,72,0.44,,,3.71,,2013-03-06 17:02:00,
2013-03-06 09:07:00,54.5,44.6,29.93,West,270,0.0,-999.0,69,0.44,,,3.71,,2013-03-06 17:07:00,
2013-03-06 09:12:00,54.7,45.2,29.93,West,270,0.0,-999.0,70,0.44,,,3.71,,2013-03-06 17:12:00,
2013-03-06 09:17:00,56.3,43.8,29.93,West,270,0.0,-999.0,62,0.44,,,3.71,,2013-03-06 17:17:00,
2013-03-06 09:22:00,56.3,45.8,29.93,West,270,0.0,-999.0,67,0.44,,,3.71,,2013-03-06 17:22:00,
2013-03-06 09:27:00,55.9,44.9,29.94,West,270,0.0,-999.0,66,0.43,,,3.71,,2013-03-06 17:27:00,
2013-03-06 09:32:00,54.7,43.1,29.94,West,270,0.0,-999.0,64,0.44,,,3.72,,2013-03-06 17:32:00,
2013-03-06 09:37:00,55.0,43.1,29.94,West,270,0.0,-999.0,64,0.44,,,3.72,,2013-03-06 17:37:00,
2013-03-06 09:42:00,57.0,46.3,29.94,West,270,0.0,-999.0,67,0.44,,,3.72,,2013-03-06 17:42:00,
2013-03-06 09:48:00,58.3,46.2,29.94,West,270,0.0,-999.0,64,0.44,,,3.72,,2013-03-06 17:48:00,
2013-03-06 09:53:00,58.6,44.6,29.94,West,270,0.0,-999.0,59,0.44,,,3.72,,2013-03-06 17:53:00,
2013-03-06 09:58:00,56.8,44.5,29.94,West,270,0.0,-999.0,63,0.44,,,3.72,,2013-03-06 17:58:00,
2013-03-06 10:03:00,56.1,42.7,29.95,West,270,0.0,-999.0,60,0.43,,,3.72,,2013-03-06 18:03:00,
2013-03-06 10:08:00,56.5,43.6,29.95,West,270,0.0,-999.0,62,0.43,,,3.72,,2013-03-06 18:08:00,
2013-03-06 10:13:00,56.5,43.5,29.95,West,270,0.0,-999.0,61,0.43,,,3.72,,2013-03-06 18:13:00,
2013-03-06 10:18:00,57.0,46.2,29.95,West,270,0.0,-999.0,67,0.43,,,3.73,,2013-03-06 18:18:00,
2013-03-06 10:23:00,58.1,43.2,29.95,West,270,0.0,-999.0,57,0.43,,,3.73,,2013-03-06 18:23:00,
2013-03-06 10:28:00,58.8,43.2,29.95,West,270,0.0,-999.0,56,0.42,,,3.73,,2013-03-06 18:28:00,
2013-03-06 10:33:00,57.7,42.4,29.95,West,270,0.0,-999.0,56,0.41,,,3.73,,2013-03-06 18:33:00,
2013-03-06 10:38:00,59.5,45.0,29.96,West,270,0.0,-999.0,58,0.41,,,3.73,,2013-03-06 18:38:00,
2013-03-06 10:44:00,58.8,43.8,29.96,West,270,0.0,-999.0,57,0.41,,,3.73,,2013-03-06 18:44:00,
2013-03-06 10:49:00,58.3,43.4,29.96,West,270,0.0,-999.0,57,0.41,,,3.73,,2013-03-06 18:49:00,
2013-03-06 10:54:00,59.0,43.8,29.96,West,270,0.0,-999.0,57,0.41,,,3.73,,2013-03-06 18:54:00,
2013-03-06 10:59:00,58.3,45.6,29.96,West,270,0.0,-999.0,62,0.41,,,3.73,,2013-03-06 18:59:00,
2013-03-06 11:04:00,59.0,44.4,29.96,West,270,0.0,-999.0,58,0.41,,,3.73,,2013-03-06 19:04:00,
2013-03-06 11:09:00,58.8,46.7,29.95,West,270,0.0,-999.0,64,0.41,,,3.73,,2013-03-06 19:09:00,
2013-03-06 11:14:00,58.1,45.9,29.96,West,270,0.0,-999.0,63,0.41,,,3.73,,2013-03-06 19:14:00,
2013-03-06 11:19:00,58.3,42.1,29.96,West,270,0.0,-999.0,54,0.41,,,3.73,,2013-03-06 19:19:00,
2013-03-06 11:24:00,58.5,41.8,29.96,West,270,0.0,-999.0,53,0.41,,,3.73,,2013-03-06 19:24:00,
2013-03-06 11:29:00,58.6,44.3,29.96,West,270,0.0,-999.0,58,0.41,,,3.73,,2013-03-06 19:29:00,
2013-03-06 11:34:00,57.6,43.2,29.96,West,270,0.0,-999.0,58,0.41,,,3.73,,2013-03-06 19:34:00,
2013-03-06 11:39:00,57.4,43.1,29.96,West,270,0.0,-999.0,58,0.41,,,3.73,,2013-03-06 19:39:00,
2013-03-06 11:44:00,59.0,44.9,29.96,West,270,0.0,-999.0,59,0.41,,,3.73,,2013-03-06 19:44:00,
2013-03-06 11:49:00,60.1,45.9,29.96,West,270,0.0,-999.0,59,0.41,,,3.73,,2013-03-06 19:49:00,
2013-03-06 11:54:00,61.2,45.5,29.96,West,270,0.0,-999.0,56,0.41,,,3.73,,2013-03-06 19:54:00,
2013-03-06 11:59:00,61.2,45.6,29.96,West,270,0.0,-999.0,56,0.41,,,3.73,,2013-03-06 19:59:00,
2013-03-06 12:04:00,60.3,45.2,29.96,West,270,0.0,-999.0,57,0.41,,,3.73,,2013-03-06 20:04:00,
2013-03-06 12:10:00,61.0,44.3,29.96,West,270,0.0,-999.0,54,0.41,,,3.73,,2013-03-06 20:10:00,
2013-03-06 12:15:00,58.8,42.8,29.96,West,270,0.0,-999.0,55,0.41,,,3.73,,2013-03-06 20:15:00,
2013-03-06 12:20:00,57.2,41.3,29.96,West,270,0.0,-999.0,55,0.41,,,3.73,,2013-03-06 20:20:00,
2013-03-06 12:25:00,57.6,42.5,29.96,West,270,0.0,-999.0,57,0.41,,,3.73,,2013-03-06 20:25:00,
2013-03-06 12:30:00,57.2,40.2,29.96,West,270,0.0,-999.0,53,0.41,,,3.73,,2013-03-06 20:30:00,
2013-03-06 12:35:00,56.5,44.1,29.96,West,270,0.0,-999.0,63,0.41,,,3.73,,2013-03-06 20:35:00,
2013-03-06 12:40:00,59.0,43.4,29.96,West,270,0.0,-999.0,56,0.41,,,3.73,,2013-03-06 20:40:00,
2013-03-06 12:45:00,59.9,45.1,29.96,West,270,0.0,-999.0,58,0.41,,,3.73,,2013-03-06 20:45:00,
2013-03-06 12:50:00,60.8,44.0,29.96,West,270,0.0,-999.0,53,0.41,,,3.73,,2013-03-06 20:50:00,
2013-03-06 12:55:00,60.3,46.9,29.96,West,270,0.0,-999.0,61,0.41,,,3.73,,2013-03-06 20:55:00,
2013-03-06 13:00:00,59.0,44.8,29.96,West,270,0.0,-999.0,59,0.41,,,3.73,,2013-03-06 21:00:00,
2013-03-06 13:05:00,59.9,45.2,29.96,West,270,0.0,-999.0,58,0.41,,,3.73,,2013-03-06 21:05:00,
2013-03-06 13:10:00,61.2,46.2,29.96,West,270,0.0,-999.0,57,0.41,,,3.73,,2013-03-06 21:10:00,
2013-03-06 13:15:00,59.9,44.9,29.96,West,270,0.0,-999.0,57,0.41,,,3.73,,2013-03-06 21:15:00,
2013-03-06 13:20:00,60.3,44.5,29.95,West,270,0.0,-999.0,55,0.41,,,3.73,,2013-03-06 21:20:00,
2013-03-06 13:26:00,58.6,44.2,29.95,West,270,0.0,-999.0,58,0.41,,,3.73,,2013-03-06 21:26:00,
2013-03-06 13:31:00,58.8,45.6,29.94,West,270,0.0,-999.0,61,0.41,,,3.73,,2013-03-06 21:31:00,
2013-03-06 13:36:00,60.6,44.9,29.95,West,270,0.0,-999.0,56,0.41,,,3.73,,2013-03-06 21:36:00,
2013-03-06 13:41:00,59.0,41.9,29.94,West,270,0.0,-999.0,53,0.41,,,3.73,,2013-03-06 21:41:00,
2013-03-06 13:46:00,60.3,44.2,29.95,West,270,0.0,-999.0,55,0.42,,,3.74,,2013-03-06 21:46:00,
2013-03-06 13:51:00,60.1,43.8,29.95,West,270,0.0,-999.0,54,0.42,,,3.74,,2013-03-06 21:51:00,
2013-03-06 13:56:00,61.3,45.2,29.94,West,270,0.0,-999.0,55,0.42,,,3.74,,2013-03-06 21:56:00,
2013-03-06 14:01:00,61.7,45.1,29.94,West,270,0.0,-999.0,54,0.42,,,3.74,,2013-03-06 22:01:00,
2013-03-06 14:06:00,61.7,44.3,29.94,West,270,0.0,-999.0,52,0.42,,,3.74,,2013-03-06 22:06:00,
2013-03-06 14:11:00,61.5,44.4,29.94,West,270,0.0,-999.0,53,0.42,,,3.74,,2013-03-06 22:11:00,
2013-03-06 14:16:00,62.1,43.5,29.94,West,270,0.0,-999.0,50,0.43,,,3.75,,2013-03-06 22:16:00,
2013-03-06 14:21:00,61.5,44.2,29.94,West,270,0.0,-999.0,52,0.43,,,3.75,,2013-03-06 22:21:00,
2013-03-06 14:27:00,61.2,44.4,29.95,West,270,0.0,-999.0,54,0.43,,,3.75,,2013-03-06 22:27:00,
2013-03-06 14:32:00,61.7,44.8,29.94,West,270,0.0,-999.0,53,0.43,,,3.75,,2013-03-06 22:32:00,
2013-03-06 14:37:00,61.3,43.7,29.94,West,270,0.0,-999.0,52,0.43,,,3.75,,2013-03-06 22:37:00,
2013-03-06 14:42:00,60.8,44.7,29.94,West,270,0.0,-999.0,55,0.43,,,3.75,,2013-03-06 22:42:00,
2013-03-06 14:47:00,59.5,42.5,29.94,West,270,0.0,-999.0,53,0.43,,,3.75,,2013-03-06 22:47:00,
2013-03-06 14:52:00,60.6,43.7,29.95,West,270,0.0,-999.0,53,0.43,,,3.75,,2013-03-06 22:52:00,
2013-03-06 14:57:00,61.0,44.0,29.94,West,270,0.0,-999.0,53,0.43,,,3.75,,2013-03-06 22:57:00,
2013-03-06 15:02:00,60.6,43.6,29.94,West,270,0.0,-999.0,53,0.43,,,3.75,,2013-03-06 23:02:00,
2013-03-06 15:07:00,60.6,43.7,29.94,West,270,0.0,-999.0,53,0.43,,,3.75,,2013-03-06 23:07:00,
2013-03-06 15:12:00,61.2,43.3,29.94,West,270,0.0,-999.0,51,0.43,,,3.75,,2013-03-06 23:12:00,
2013-03-06 15:17:00,60.8,43.3,29.94,West,270,0.0,-999.0,52,0.43,,,3.75,,2013-03-06 23:17:00,
2013-03-06 15:22:00,60.6,43.5,29.95,West,270,0.0,-999.0,53,0.43,,,3.75,,2013-03-06 23:22:00,
2013-03-06 15:27:00,60.6,42.9,29.95,West,270,0.0,-999.0,51,0.43,,,3.75,,2013-03-06 23:27:00,
2013-03-06 15:32:00,60.8,43.3,29.95,West,270,0.0,-999.0,52,0.43,,,3.75,,2013-03-06 23:32:00,
2013-03-06 15:37:00,60.4,44.2,29.95,West,270,0.0,-999.0,55,0.43,,,3.75,,2013-03-06 23:37:00,
2013-03-06 15:42:00,60.6,45.8,29.95,West,270,0.0,-999.0,58,0.43,,,3.75,,2013-03-06 23:42:00,
2013-03-06 15:47:00,61.0,44.3,29.95,West,270,0.0,-999.0,54,0.43,,,3.75,,2013-03-06 23:47:00,
2013-03-06 15:52:00,61.3,43.5,29.95,West,270,0.0,-999.0,51,0.43,,,3.75,,2013-03-06 23:52:00,
2013-03-06 15:57:00,61.0,43.8,29.94,West,270,0.0,-999.0,53,0.43,,,3.75,,2013-03-06 23:57:00,
2013-03-06 16:03:00,61.2,44.3,29.95,West,270,0.0,-999.0,53,0.43,,,3.75,,2013-03-07 00:03:00,
2013-03-06 16:08:00,60.1,44.5,29.94,West,270,0.0,-999.0,56,0.43,,,3.75,,2013-03-07 00:08:00,
2013-03-06 16:13:00,60.1,44.1,29.94,West,270,0.0,-999.0,55,0.43,,,3.75,,2013-03-07 00:13:00,
2013-03-06 16:18:00,60.1,44.6,29.94,West,270,0.0,-999.0,56,0.43,,,3.75,,2013-03-07 00:18:00,
2013-03-06 16:23:00,59.7,44.2,29.94,West,270,0.0,-999.0,56,0.43,,,3.75,,2013-03-07 00:23:00,
2013-03-06 16:28:00,59.7,43.4,29.94,West,270,0.0,-999.0,54,0.44,,,3.76,,2013-03-07 00:28:00,
2013-03-06 16:33:00,59.7,45.2,29.94,West,270,0.0,-999.0,58,0.44,,,3.76,,2013-03-07 00:33:00,
2013-03-06 16:38:00,59.9,45.1,29.94,West,270,0.0,-999.0,58,0.44,,,3.76,,2013-03-07 00:38:00,
2013-03-06 16:43:00,59.4,45.2,29.95,West,270,0.0,-999.0,59,0.43,,,3.76,,2013-03-07 00:43:00,
2013-03-06 16:48:00,58.5,43.6,29.94,West,270,0.0,-999.0,57,0.43,,,3.76,,2013-03-07 00:48:00,
2013-03-06 16:53:00,58.1,43.1,29.93,West,270,0.0,-999.0,57,0.43,,,3.76,,2013-03-07 00:53:00,
2013-03-06 16:58:00,58.3,45.4,29.94,West,270,0.0,-999.0,62,0.44,,,3.77,,2013-03-07 00:58:00,
2013-03-06 17:03:00,58.6,43.9,29.93,West,270,0.0,-999.0,58,0.44,,,3.77,,2013-03-07 01:03:00,
2013-03-06 17:08:00,57.6,41.4,29.93,West,270,0.0,-999.0,54,0.44,,,3.77,,2013-03-07 01:08:00,
2013-03-06 17:13:00,56.3,42.6,29.93,West,270,0.0,-999.0,60,0.44,,,3.77,,2013-03-07 01:13:00,
2013-03-06 17:18:00,56.8,42.8,29.93,West,270,0.0,-999.0,59,0.44,,,3.77,,2013-03-07 01:18:00,
2013-03-06 17:23:00,57.2,43.4,29.92,West,270,0.0,-999.0,59,0.44,,,3.77,,2013-03-07 01:23:00,
2013-03-06 17:29:00,57.4,45.0,29.93,West,270,0.0,-999.0,63,0.44,,,3.77,,2013-03-07 01:29:00,
2013-03-06 17:34:00,57.7,44.3,29.92,West,270,0.0,-999.0,60,0.44,,,3.77,,2013-03-07 01:34:00,
2013-03-06 17:39:00,57.7,43.6,29.92,West,270,0.0,-999.0,59,0.44,,,3.77,,2013-03-07 01:39:00,
2013-03-06 17:44:00,57.7,44.7,29.93,West,270,0.0,-999.0,61,0.44,,,3.77,,2013-03-07 01:44:00,
2013-03-06 17:49:00,57.2,45.5,29.93,West,270,0.0,-999.0,64,0.44,,,3.77,,2013-03-07 01:49:00,
2013-03-06 17:54:00,56.7,43.7,29.92,West,270,0.0,-999.0,61,0.44,,,3.77,,2013-03-07 01:54:00,
2013-03-06 17:59:00,56.5,46.0,29.93,West,270,0.0,-999.0,68,0.44,,,3.77,,2013-03-07 01:59:00,
2013-03-06 18:04:00,56.5,44.7,29.92,West,270,0.0,-999.0,64,0.44,,,3.77,,2013-03-07 02:04:00,
2013-03-06 18:09:00,55.4,45.2,29.93,West,270,0.0,-999.0,68,0.44,,,3.77,,2013-03-07 02:09:00,
2013-03-06 18:14:00,55.6,45.1,29.93,West,270,0.0,-999.0,67,0.44,,,3.77,,2013-03-07 02:14:00,
2013-03-06 18:19:00,55.6,45.6,29.92,West,270,0.0,-999.0,69,0.44,,,3.77,,2013-03-07 02:19:00,
2013-03-06 18:24:00,55.4,44.2,29.93,West,270,0.0,-999.0,66,0.44,,,3.77,,2013-03-07 02:24:00,
2013-03-06 18:29:00,54.9,44.3,29.92,West,270,0.0,-999.0,67,0.44,,,3.77,,2013-03-07 02:29:00,
2013-03-06 18:34:00,54.9,45.3,29.92,West,270,0.0,-999.0,70,0.44,,,3.77,,2013-03-07 02:34:00,
2013-03-06 18:39:00,54.9,45.0,29.92,West,270,0.0,-999.0,69,0.44,,,3.77,,2013-03-07 02:39:00,
2013-03-06 18:44:00,54.9,45.0,29.93,West,270,0.0,-999.0,69,0.44,,,3.77,,2013-03-07 02:44:00,
2013-03-06 18:49:00,54.3,44.6,29.92,West,270,0.0,-999.0,69,0.44,,,3.77,,2013-03-07 02:49:00,
2013-03-06 18:54:00,54.1,44.3,29.92,West,270,0.0,-999.0,69,0.44,,,3.77,,2013-03-07 02:54:00,
2013-03-06 18:59:00,53.8,44.6,29.92,West,270,0.0,-999.0,71,0.44,,,3.77,,2013-03-07 02:59:00,
2013-03-06 19:04:00,54.0,44.9,29.92,West,270,0.0,-999.0,71,0.44,,,3.77,,2013-03-07 03:04:00,
2013-03-06 19:09:00,54.7,45.3,29.92,West,270,0.0,-999.0,70,0.44,,,3.77,,2013-03-07 03:09:00,
2013-03-06 19:14:00,54.7,45.9,29.92,West,270,0.0,-999.0,72,0.44,,,3.77,,2013-03-07 03:14:00,
2013-03-06 19:20:00,54.1,45.0,29.92,West,270,0.0,-999.0,71,0.44,,,3.77,,2013-03-07 03:20:00,
2013-03-06 19:25:00,54.0,44.9,29.92,West,270,0.0,-999.0,71,0.44,,,3.77,,2013-03-07 03:25:00,
2013-03-06 19:30:00,53.8,45.0,29.92,West,270,0.0,-999.0,72,0.44,,,3.77,,2013-03-07 03:30:00,
2013-03-06 19:35:00,54.0,45.3,29.92,West,270,0.0,-999.0,72,0.44,,,3.77,,2013-03-07 03:35:00,
2013-03-06 19:40:00,53.4,45.3,29.92,West,270,0.0,-999.0,74,0.44,,,3.77,,2013-03-07 03:40:00,
2013-03-06 19:45:00,53.8,45.2,29.92,West,270,0.0,-999.0,72,0.44,,,3.77,,2013-03-07 03:45:00,
2013-03-06 19:50:00,54.3,45.8,29.92,West,270,0.0,-999.0,72,0.44,,,3.77,,2013-03-07 03:50:00,
2013-03-06 19:55:00,54.1,45.1,29.92,West,270,0.0,-999.0,71,0.44,,,3.77,,2013-03-07 03:55:00,
2013-03-06 20:00:00,53.4,44.9,29.91,West,270,0.0,-999.0,72,0.44,,,3.77,,2013-03-07 04:00:00,
2013-03-06 20:05:00,54.3,46.3,29.92,West,270,0.0,-999.0,74,0.44,,,3.77,,2013-03-07 04:05:00,
2013-03-06 20:10:00,54.3,45.4,29.92,West,270,0.0,-999.0,71,0.44,,,3.77,,2013-03-07 04:10:00,
2013-03-06 20:16:00,54.5,46.0,29.92,West,270,0.0,-999.0,73,0.44,,,3.77,,2013-03-07 04:16:00,
2013-03-06 20:21:00,54.1,45.3,29.92,West,270,0.0,-999.0,72,0.44,,,3.77,,2013-03-07 04:21:00,
2013-03-06 20:26:00,53.4,45.2,29.91,West,270,0.0,-999.0,73,0.44,,,3.77,,2013-03-07 04:26:00,
2013-03-06 20:31:00,53.1,44.8,29.91,West,270,0.0,-999.0,73,0.44,,,3.77,,2013-03-07 04:31:00,
2013-03-06 20:36:00,52.9,45.7,29.91,West,270,0.0,-999.0,76,0.44,,,3.77,,2013-03-07 04:36:00,
2013-03-06 20:41:00,53.6,45.9,29.91,West,270,0.0,-999.0,75,0.44,,,3.77,,2013-03-07 04:41:00,
2013-03-06 20:46:00,52.9,45.7,29.91,West,270,0.0,-999.0,76,0.44,,,3.77,,2013-03-07 04:46:00,
2013-03-06 20:51:00,53.1,45.6,29.91,West,270,0.0,-999.0,75,0.44,,,3.77,,2013-03-07 04:51:00,
2013-03-06 20:56:00,52.9,46.2,29.91,West,270,0.0,-999.0,77,0.44,,,3.77,,2013-03-07 04:56:00,
2013-03-06 21:00:00,52.7,45.7,29.91,West,270,0.0,-999.0,77,0.44,,,3.77,,2013-03-07 05:00:00,
2013-03-06 21:01:00,52.7,45.7,29.91,West,270,0.0,-999.0,77,0.44,,,3.77,,2013-03-07 05:01:00,
2013-03-06 21:06:00,52.7,45.6,29.91,West,270,0.0,-999.0,76,0.44,,,3.77,,2013-03-07 05:06:00,
2013-03-06 21:11:00,52.2,45.1,29.91,West,270,0.0,-999.0,76,0.43,,,3.77,,2013-03-07 05:11:00,
2013-03-06 21:16:00,51.8,45.0,29.91,West,270,0.0,-999.0,77,0.43,,,3.77,,2013-03-07 05:16:00,
2013-03-06 21:21:00,51.6,44.8,29.91,West,270,0.0,-999.0,77,0.42,,,3.77,,2013-03-07 05:21:00,
2013-03-06 21:26:00,51.3,44.8,29.91,West,270,0.0,-999.0,78,0.42,,,3.77,,2013-03-07 05:26:00,
2013-03-06 21:32:00,51.3,44.9,29.91,West,270,0.0,-999.0,78,0.42,,,3.77,,2013-03-07 05:32:00,
2013-03-06 21:37:00,51.1,45.1,29.91,West,270,0.0,-999.0,80,0.41,,,3.77,,2013-03-07 05:37:00,
2013-03-06 21:42:00,51.3,45.0,29.91,West,270,0.0,-999.0,79,0.40,,,3.77,,2013-03-07 05:42:00,
2013-03-06 21:47:00,51.3,45.2,29.91,West,270,0.0,-999.0,79,0.38,,,3.77,,2013-03-07 05:47:00,
2013-03-06 21:52:00,51.4,45.4,29.91,West,270,0.0,-999.0,79,0.37,,,3.77,,2013-03-07 05:52:00,
2013-03-06 21:57:00,51.4,45.0,29.91,West,270,0.0,-999.0,78,0.37,,,3.77,,2013-03-07 05:57:00,
2013-03-06 22:02:00,51.4,44.7,29.91,West,270,0.0,-999.0,77,0.37,,,3.77,,2013-03-07 06:02:00,
2013-03-06 22:07:00,50.5,44.4,29.91,West,270,0.0,-999.0,79,0.37,,,3.77,,2013-03-07 06:07:00,
2013-03-06 22:12:00,50.0,43.8,29.90,West,270,0.0,-999.0,79,0.37,,,3.77,,2013-03-07 06:12:00,
2013-03-06 22:17:00,50.0,44.3,29.90,West,270,0.0,-999.0,80,0.37,,,3.77,,2013-03-07 06:17:00,
2013-03-06 22:22:00,50.5,44.3,29.90,West,270,0.0,-999.0,79,0.37,,,3.77,,2013-03-07 06:22:00,
2013-03-06 22:27:00,50.9,44.2,29.90,West,270,0.0,-999.0,77,0.37,,,3.77,,2013-03-07 06:27:00,
2013-03-06 22:32:00,50.9,45.2,29.90,West,270,0.0,-999.0,80,0.37,,,3.77,,2013-03-07 06:32:00,
2013-03-06 22:37:00,50.9,44.3,29.90,West,270,0.0,-999.0,78,0.37,,,3.77,,2013-03-07 06:37:00,
2013-03-06 22:42:00,50.9,44.5,29.90,West,270,0.0,-999.0,78,0.37,,,3.77,,2013-03-07 06:42:00,
2013-03-06 22:47:00,50.7,44.4,29.89,West,270,0.0,-999.0,78,0.37,,,3.77,,2013-03-07 06:47:00,
2013-03-06 22:52:00,50.7,43.9,29.89,West,270,0.0,-999.0,77,0.37,,,3.77,,2013-03-07 06:52:00,
2013-03-06 22:57:00,50.4,44.1,29.89,West,270,0.0,-999.0,78,0.37,,,3.77,,2013-03-07 06:57:00,
2013-03-06 23:03:00,51.4,45.0,29.90,West,270,0.0,-999.0,78,0.37,,,3.77,,2013-03-07 07:03:00,
2013-03-06 23:08:00,51.4,44.7,29.89,West,270,0.0,-999.0,77,0.38,,,3.78,,2013-03-07 07:08:00,
2013-03-06 23:13:00,51.3,44.5,29.89,West,270,0.0,-999.0,77,0.38,,,3.78,,2013-03-07 07:13:00,
2013-03-06 23:18:00,50.5,44.0,29.90,West,270,0.0,-999.0,78,0.38,,,3.78,,2013-03-07 07:18:00,
2013-03-06 23:23:00,50.7,45.0,29.89,West,270,0.0,-999.0,80,0.38,,,3.78,,2013-03-07 07:23:00,
2013-03-06 23:28:00,50.7,44.7,29.90,West,270,0.0,-999.0,79,0.37,,,3.78,,2013-03-07 07:28:00,
2013-03-06 23:33:00,50.5,44.6,29.89,West,270,0.0,-999.0,80,0.36,,,3.78,,2013-03-07 07:33:00,
2013-03-06 23:38:00,50.5,44.0,29.90,West,270,0.0,-999.0,78,0.35,,,3.78,,2013-03-07 07:38:00,
2013-03-06 23:43:00,50.0,43.6,29.89,West,270,0.0,-999.0,78,0.34,,,3.78,,2013-03-07 07:43:00,
2013-03-06 23:48:00,49.6,43.4,29.89,West,270,0.0,-999.0,79,0.34,,,3.78,,2013-03-07 07:48:00,
2013-03-06 23:53:00,49.3,43.3,29.89,West,270,0.0,-999.0,79,0.34,,,3.78,,2013-03-07 07:53:00,
2013-03-06 23:59:00,49.3,43.8,29.89,West,270,0.0,-999.0,81,0.33,,,3.78,,2013-03-07 07:59:00,